Campus, New Mexico
Current Conditions -  °F | °C
As of 5:35 PM on Saturday 22 Nov 2014 (Local Time) from KONM Reporting Station
Clear Clear  
Wind Chill: 55°   Ceiling: Unl
Heat Index: 55°   Visibility: 10mi
Dew Point: 19°   Wind: 0mph
Humidity: 25%   Direction: NA
Pressure: 29.9"   Gusts: NA
Location:  33.8946°N, 106.565°W
Report Text: KONM 230035Z AUTO 00000KT 10SM CLR 13/M07 A2990 RMK AO2 T01271072
Loading
Personal Weather Stations






























Interactive Weather Map New forecast layout! Learn more

10-Day Weather Forecast

Advertisements
Track Severe Weather on mobile